Time;durP1;ratioP1;P1;durP2;ratioP2;P2;SDS_P1;SDS_P2;PMS_P1;PMS_P2;Temp;Humidity;BMP_temperature;BMP_pressure;BME280_temperature;BME280_humidity;BME280_pressure;Samples;Min_cycle;Max_cycle;Signal;HPM_P1;HPM_P2
2022/02/09 00:01:10;;;;;;;6.43;3.78;;;-1.10;99.90;;;;;;2088245;28;20222;-70
2022/02/09 00:03:13;;;;;;;6.32;3.50;;;-1.00;99.90;;;;;;2098239;28;20290;-73
2022/02/09 00:04:28;;;;;;;10.20;4.18;;;-1.00;99.90;;;;;;2095713;28;20313;-76
2022/02/09 00:05:41;;;;;;;7.65;3.80;;;-1.00;99.90;;;;;;2088737;28;20664;-72
2022/02/09 00:08:01;;;;;;;6.27;3.87;;;-1.20;99.90;;;;;;2095873;28;20757;-72
2022/02/09 00:09:03;;;;;;;6.03;3.67;;;-1.20;99.90;;;;;;2094189;28;20186;-72
2022/02/09 00:10:05;;;;;;;8.35;4.05;;;-1.10;99.90;;;;;;2096378;28;20190;-72
2022/02/09 00:11:08;;;;;;;5.35;3.83;;;-1.10;99.90;;;;;;2096508;28;20594;-72
2022/02/09 00:12:16;;;;;;;6.40;3.30;;;-1.10;99.90;;;;;;2097013;28;20191;-72
2022/02/09 00:14:45;;;;;;;5.57;3.70;;;-1.10;99.90;;;;;;2094354;28;20186;-72
2022/02/09 00:15:58;;;;;;;10.00;3.60;;;-1.10;99.90;;;;;;2086119;28;20171;-72
2022/02/09 00:18:22;;;;;;;6.95;3.65;;;-1.20;99.90;;;;;;2089283;28;20179;-71
2022/02/09 00:19:33;;;;;;;4.25;2.75;;;-1.20;99.90;;;;;;2096590;28;20159;-72
2022/02/09 00:22:20;;;;;;;7.30;3.28;;;-1.20;99.90;;;;;;2096850;28;20170;-71
2022/02/09 00:37:30;;;;;;;4.18;2.30;;;-1.10;99.90;;;;;;2095368;28;20189;-69
2022/02/09 00:38:47;;;;;;;4.43;2.45;;;-1.10;99.90;;;;;;2087887;28;20193;-71
2022/02/09 00:40:12;;;;;;;6.07;2.67;;;-1.20;99.90;;;;;;2092676;28;20261;-71
2022/02/09 00:41:31;;;;;;;5.00;2.83;;;-1.20;99.90;;;;;;2104640;28;20186;-71
2022/02/09 00:42:48;;;;;;;4.43;2.50;;;-1.20;99.90;;;;;;2096497;28;20631;-71
2022/02/09 00:45:15;;;;;;;6.10;2.77;;;-1.30;99.90;;;;;;2082200;28;20191;-72
2022/02/09 00:59:02;;;;;;;4.25;2.35;;;-1.30;99.90;;;;;;2093243;28;20206;-71
2022/02/09 00:59:56;;;;;;;4.28;2.20;;;-1.30;99.90;;;;;;2096866;28;20171;-72
2022/02/09 01:11:38;;;;;;;3.15;1.77;;;-1.10;99.90;;;;;;2082724;28;20675;-72
2022/02/09 01:39:05;;;;;;;3.28;1.80;;;-1.40;99.90;;;;;;2098431;28;20186;-72
2022/02/09 01:40:50;;;;;;;3.33;2.35;;;-1.40;99.90;;;;;;2097801;28;20171;-72
2022/02/09 01:43:57;;;;;;;4.95;1.90;;;-1.40;99.90;;;;;;2098728;28;20584;-72
2022/02/09 01:55:28;;;;;;;3.90;1.45;;;-1.40;99.90;;;;;;2098467;28;20182;-71
2022/02/09 01:56:31;;;;;;;3.80;1.40;;;-1.40;99.90;;;;;;2089585;28;20300;-71
2022/02/09 01:57:32;;;;;;;4.35;1.70;;;-1.50;99.90;;;;;;2090292;28;20240;-71
2022/02/09 01:58:33;;;;;;;2.60;1.40;;;-1.50;99.90;;;;;;2089358;28;20230;-71
2022/02/09 01:59:36;;;;;;;2.92;1.70;;;-1.50;99.90;;;;;;2089492;28;20267;-71
2022/02/09 02:00:38;;;;;;;2.28;1.42;;;-1.50;99.90;;;;;;2098408;28;20181;-71
2022/02/09 02:01:39;;;;;;;3.05;1.33;;;-1.50;99.90;;;;;;2097621;28;20613;-71
2022/02/09 02:02:39;;;;;;;1.83;1.53;;;-1.60;99.90;;;;;;2089328;28;20227;-71
2022/02/09 02:03:40;;;;;;;2.73;1.53;;;-1.50;99.90;;;;;;2089426;28;20556;-71
2022/02/09 02:04:41;;;;;;;3.45;1.92;;;-1.50;99.90;;;;;;2089342;28;20188;-71
2022/02/09 02:05:42;;;;;;;2.42;1.63;;;-1.50;99.90;;;;;;2097589;28;20190;-71
2022/02/09 02:06:45;;;;;;;1.80;1.38;;;-1.50;99.90;;;;;;2097623;28;20190;-71
2022/02/09 02:07:51;;;;;;;3.40;1.65;;;-1.50;99.90;;;;;;2089402;28;20211;-71
2022/02/09 02:08:53;;;;;;;4.60;1.75;;;-1.40;99.90;;;;;;2090076;28;20174;-71
2022/02/09 02:10:00;;;;;;;2.58;1.63;;;-1.40;99.90;;;;;;2097567;28;20248;-71
2022/02/09 02:11:10;;;;;;;2.72;1.67;;;-1.50;99.90;;;;;;2097788;28;20710;-71
2022/02/09 02:12:16;;;;;;;3.95;2.40;;;-1.50;99.90;;;;;;2091251;28;20165;-71
2022/02/09 02:15:17;;;;;;;1.83;1.23;;;-1.40;99.90;;;;;;2097657;28;20179;-71
2022/02/09 02:18:27;;;;;;;2.42;1.55;;;-1.50;99.90;;;;;;2098384;28;20173;-71
2022/02/09 02:19:45;;;;;;;3.00;1.20;;;-1.50;99.90;;;;;;2098168;28;20205;-71
2022/02/09 02:21:01;;;;;;;3.42;1.40;;;-1.60;99.90;;;;;;2098333;28;20161;-71
2022/02/09 02:22:25;;;;;;;2.92;1.10;;;-1.60;99.90;;;;;;2097532;28;20174;-71
2022/02/09 02:23:40;;;;;;;2.25;1.25;;;-1.60;99.90;;;;;;2097409;28;20717;-71
2022/02/09 02:28:45;;;;;;;1.50;1.30;;;-1.50;99.90;;;;;;2097758;28;20228;-71
2022/02/09 02:36:26;;;;;;;1.60;1.00;;;-1.60;99.90;;;;;;2097379;28;20629;-72
2022/02/09 02:39:11;;;;;;;3.67;1.55;;;-1.60;99.90;;;;;;2097413;28;20168;-72
2022/02/09 02:46:07;;;;;;;1.52;1.08;;;-1.60;99.90;;;;;;2097971;28;20217;-71
2022/02/09 02:58:49;;;;;;;1.10;1.00;;;-1.70;99.90;;;;;;2097365;28;20183;-71
2022/02/09 03:08:08;;;;;;;2.05;1.35;;;-1.70;99.90;;;;;;2097115;28;20197;-71
2022/02/09 03:14:01;;;;;;;2.30;1.15;;;-1.60;99.90;;;;;;2100655;28;20168;-71
2022/02/09 03:16:11;;;;;;;3.28;1.08;;;-1.60;99.90;;;;;;2105532;28;20196;-71
2022/02/09 03:17:17;;;;;;;2.13;0.88;;;-1.70;99.90;;;;;;2105042;28;20786;-71
2022/02/09 03:20:53;;;;;;;1.17;1.02;;;-1.60;99.90;;;;;;2097437;28;20236;-71
2022/02/09 03:23:29;;;;;;;0.98;0.80;;;-1.60;99.90;;;;;;2080067;28;20595;-71
2022/02/09 03:54:29;;;;;;;1.17;0.73;;;-1.40;99.90;;;;;;2100772;28;20186;-71
2022/02/09 03:57:00;;;;;;;0.85;0.68;;;-1.50;99.90;;;;;;2101983;28;20197;-71
2022/02/09 03:58:00;;;;;;;0.85;0.75;;;-1.50;99.90;;;;;;2100833;28;20162;-72
2022/02/09 03:59:01;;;;;;;2.07;0.90;;;-1.50;99.90;;;;;;2105296;28;20184;-71
2022/02/09 04:00:03;;;;;;;4.87;1.37;;;-1.50;99.90;;;;;;2096691;28;20538;-71
2022/02/09 04:01:04;;;;;;;2.63;0.88;;;-1.50;99.90;;;;;;2088925;28;20193;-72
2022/02/09 04:02:05;;;;;;;1.70;1.03;;;-1.50;99.90;;;;;;2096864;28;20756;-71
2022/02/09 04:03:13;;;;;;;3.40;0.90;;;-1.50;99.90;;;;;;2105053;28;20200;-71
2022/02/09 04:04:14;;;;;;;1.30;0.90;;;-1.50;99.90;;;;;;2105885;28;20177;-71
2022/02/09 04:05:17;;;;;;;0.93;0.73;;;-1.50;99.90;;;;;;2104910;28;20272;-71
2022/02/09 04:06:18;;;;;;;4.07;1.33;;;-1.60;99.90;;;;;;2097199;28;20676;-71
2022/02/09 04:07:18;;;;;;;4.07;1.00;;;-1.60;99.90;;;;;;2096946;28;20181;-71
2022/02/09 04:08:26;;;;;;;1.27;0.97;;;-1.60;99.90;;;;;;2088573;28;20205;-71
2022/02/09 04:09:30;;;;;;;1.08;0.80;;;-1.60;99.90;;;;;;2097753;28;20170;-71
2022/02/09 04:10:42;;;;;;;2.08;0.88;;;-1.60;99.90;;;;;;2105720;28;20224;-71
2022/02/09 04:12:03;;;;;;;1.13;0.85;;;-1.50;99.90;;;;;;2105778;28;20730;-71
2022/02/09 04:13:32;;;;;;;3.97;1.10;;;-1.50;99.90;;;;;;2096758;28;20205;-71
2022/02/09 04:14:58;;;;;;;4.05;1.27;;;-1.40;99.90;;;;;;2103685;28;20174;-71
2022/02/09 04:35:58;;;;;;;1.17;0.85;;;-1.20;99.90;;;;;;2088907;28;20215;-71
2022/02/09 04:36:09;;;;;;;2.80;1.08;;;-1.20;99.90;;;;;;2088946;28;20171;-71
2022/02/09 04:38:19;;;;;;;2.23;1.20;;;-1.10;99.90;;;;;;2080289;28;20186;-71
2022/02/09 04:39:26;;;;;;;2.22;1.08;;;-1.10;99.90;;;;;;2081369;28;20411;-71
2022/02/09 04:43:23;;;;;;;1.52;1.20;;;-1.10;99.90;;;;;;2084588;28;20226;-71
2022/02/09 04:44:47;;;;;;;2.22;1.08;;;-1.20;99.90;;;;;;2088952;28;20663;-71
2022/02/09 04:50:53;;;;;;;4.63;3.80;;;-1.50;99.90;;;;;;2088668;28;20215;-71
2022/02/09 04:52:16;;;;;;;2.95;2.45;;;-1.50;99.90;;;;;;2090030;28;20264;-71
2022/02/09 04:56:00;;;;;;;5.85;5.32;;;-1.30;99.90;;;;;;2090659;28;20206;-71
2022/02/09 04:57:15;;;;;;;3.08;2.75;;;-1.30;99.90;;;;;;2090727;28;20172;-71
2022/02/09 04:58:40;;;;;;;2.45;1.98;;;-1.30;99.90;;;;;;2090798;28;20627;-71
2022/02/09 04:59:57;;;;;;;1.92;1.50;;;-1.40;99.90;;;;;;2090020;28;20252;-71
2022/02/09 05:01:20;;;;;;;2.78;1.40;;;-1.30;99.90;;;;;;2090497;28;20236;-70
2022/02/09 05:17:53;;;;;;;3.45;3.08;;;-1.60;99.90;;;;;;2090941;28;20636;-71
2022/02/09 05:18:42;;;;;;;5.43;3.92;;;-1.50;99.90;;;;;;2090413;28;20160;-71
2022/02/09 05:23:42;;;;;;;3.85;3.42;;;-1.40;99.90;;;;;;2095034;28;20165;-71
2022/02/09 05:25:47;;;;;;;3.45;2.25;;;-1.30;99.90;;;;;;2089601;28;20184;-71
2022/02/09 05:26:25;;;;;;;4.97;3.25;;;-1.30;99.90;;;;;;2076996;28;20195;-71
2022/02/09 05:27:37;;;;;;;3.40;3.10;;;-1.40;99.90;;;;;;2098038;28;20179;-72
2022/02/09 05:28:37;;;;;;;3.38;3.08;;;-1.40;99.90;;;;;;2096639;28;20173;-71
2022/02/09 05:29:38;;;;;;;4.87;3.50;;;-1.40;99.90;;;;;;2090191;28;20658;-71
2022/02/09 05:30:40;;;;;;;3.90;3.50;;;-1.40;99.90;;;;;;2090220;28;20178;-72
2022/02/09 05:31:41;;;;;;;4.32;3.92;;;-1.40;99.90;;;;;;2089548;28;20263;-71
2022/02/09 05:32:42;;;;;;;4.10;3.50;;;-1.50;99.90;;;;;;2081439;28;20740;-72
2022/02/09 05:33:45;;;;;;;6.63;4.15;;;-1.50;99.90;;;;;;2089757;28;20881;-72
2022/02/09 05:34:45;;;;;;;5.80;4.40;;;-1.50;99.90;;;;;;2089387;28;20188;-72
2022/02/09 05:35:46;;;;;;;5.77;4.70;;;-1.50;99.90;;;;;;2089896;28;20550;-72
2022/02/09 05:36:47;;;;;;;4.85;4.32;;;-1.50;99.90;;;;;;2089593;28;20232;-71
2022/02/09 05:37:50;;;;;;;7.93;4.60;;;-1.40;99.90;;;;;;2089777;28;20225;-72
2022/02/09 05:38:51;;;;;;;7.30;5.55;;;-1.50;99.90;;;;;;2097756;28;20181;-72
2022/02/09 05:39:52;;;;;;;5.80;4.80;;;-1.50;99.90;;;;;;2097861;28;20185;-71
2022/02/09 05:40:52;;;;;;;7.07;4.70;;;-1.50;99.90;;;;;;2098011;28;20183;-71
2022/02/09 05:41:55;;;;;;;4.70;3.83;;;-1.50;99.90;;;;;;2089636;28;20194;-71
2022/02/09 05:42:57;;;;;;;4.22;3.35;;;-1.50;99.90;;;;;;2089693;28;20258;-72
2022/02/09 05:43:58;;;;;;;1.98;1.77;;;-1.50;99.90;;;;;;2090182;28;21016;-71
2022/02/09 05:45:05;;;;;;;3.57;3.00;;;-1.40;99.90;;;;;;2090191;28;20190;-71
2022/02/09 05:50:25;;;;;;;4.38;3.83;;;-1.50;99.90;;;;;;2072827;28;20788;-71
2022/02/09 05:56:07;;;;;;;5.63;3.53;;;-1.50;99.90;;;;;;2090181;28;20316;-72
2022/02/09 06:00:23;;;;;;;9.60;4.10;;;-1.50;99.90;;;;;;2089605;28;20185;-72
2022/02/09 06:01:23;;;;;;;6.40;4.73;;;-1.50;99.90;;;;;;2081312;28;20195;-71
2022/02/09 06:02:24;;;;;;;9.53;4.87;;;-1.60;99.90;;;;;;2089075;28;20231;-71
2022/02/09 06:03:25;;;;;;;5.00;3.80;;;-1.50;99.90;;;;;;2090172;28;20180;-71
2022/02/09 06:04:26;;;;;;;8.10;4.43;;;-1.60;99.90;;;;;;2089211;28;20187;-71
2022/02/09 06:05:27;;;;;;;5.78;4.07;;;-1.60;99.90;;;;;;2089646;28;20249;-71
2022/02/09 06:06:27;;;;;;;5.53;4.30;;;-1.60;99.90;;;;;;2097667;28;20190;-71
2022/02/09 06:07:28;;;;;;;7.03;3.97;;;-1.50;99.90;;;;;;2090135;28;20205;-71
2022/02/09 06:08:30;;;;;;;5.77;4.33;;;-1.50;99.90;;;;;;2089146;28;20719;-71
2022/02/09 06:09:30;;;;;;;6.85;4.88;;;-1.60;99.90;;;;;;2089301;28;20183;-71
2022/02/09 06:10:33;;;;;;;6.77;4.77;;;-1.50;99.90;;;;;;2089133;28;20211;-71
2022/02/09 06:11:43;;;;;;;7.15;4.75;;;-1.50;99.90;;;;;;2097204;28;20181;-71
2022/02/09 06:13:12;;;;;;;4.82;3.97;;;-1.60;99.90;;;;;;2097529;28;20256;-72
2022/02/09 06:14:23;;;;;;;5.47;3.58;;;-1.60;99.90;;;;;;2096854;28;20987;-71
2022/02/09 06:20:25;;;;;;;3.38;2.33;;;-1.60;99.90;;;;;;2094366;28;20259;-71
2022/02/09 06:21:26;;;;;;;1.73;1.10;;;-1.60;99.90;;;;;;2097786;28;20619;-72
2022/02/09 06:22:27;;;;;;;1.73;1.38;;;-1.60;99.90;;;;;;2098173;28;20182;-71
2022/02/09 06:23:29;;;;;;;1.57;1.27;;;-1.50;99.90;;;;;;2097676;28;20188;-72
2022/02/09 06:24:30;;;;;;;2.25;1.48;;;-1.50;99.90;;;;;;2089237;28;20184;-72
2022/02/09 06:25:31;;;;;;;1.60;1.10;;;-1.50;99.90;;;;;;2089327;28;20219;-71
2022/02/09 06:26:32;;;;;;;3.00;1.43;;;-1.50;99.90;;;;;;2097510;28;20182;-71
2022/02/09 06:27:32;;;;;;;2.23;1.10;;;-1.50;99.90;;;;;;2097469;28;20179;-71
2022/02/09 06:28:33;;;;;;;0.93;0.83;;;-1.60;99.90;;;;;;2097408;28;20182;-72
2022/02/09 06:29:34;;;;;;;1.57;1.00;;;-1.50;99.90;;;;;;2088896;28;20281;-71
2022/02/09 06:30:36;;;;;;;1.37;1.20;;;-1.50;99.90;;;;;;2089223;28;20615;-71
2022/02/09 06:31:37;;;;;;;2.40;2.05;;;-1.50;99.90;;;;;;2097415;28;20178;-71
2022/02/09 06:32:38;;;;;;;3.47;2.30;;;-1.40;99.90;;;;;;2097442;28;20197;-71
2022/02/09 06:33:39;;;;;;;2.50;1.40;;;-1.40;99.90;;;;;;2089221;28;20773;-71
2022/02/09 06:34:42;;;;;;;2.07;1.57;;;-1.40;99.90;;;;;;2097322;28;20179;-71
2022/02/09 06:35:43;;;;;;;1.75;1.40;;;-1.40;99.90;;;;;;2097880;28;20228;-72
2022/02/09 06:37:00;;;;;;;2.03;1.40;;;-1.40;99.90;;;;;;2098076;28;20263;-72
2022/02/09 06:38:02;;;;;;;1.70;1.10;;;-1.40;99.90;;;;;;2097945;28;20197;-71
2022/02/09 06:39:06;;;;;;;1.13;0.90;;;-1.40;99.90;;;;;;2097912;28;20260;-71
2022/02/09 06:40:08;;;;;;;2.53;1.00;;;-1.40;99.90;;;;;;2097336;28;20257;-71
2022/02/09 06:41:09;;;;;;;1.30;0.98;;;-1.40;99.90;;;;;;2089505;28;20183;-71
2022/02/09 06:42:10;;;;;;;1.48;1.00;;;-1.40;99.90;;;;;;2089088;28;20183;-71
2022/02/09 06:43:12;;;;;;;1.37;1.17;;;-1.40;99.90;;;;;;2097306;28;20228;-71
2022/02/09 06:44:13;;;;;;;3.10;1.00;;;-1.30;99.90;;;;;;2097370;28;20228;-71
2022/02/09 06:45:24;;;;;;;1.85;1.10;;;-1.30;99.90;;;;;;2089110;28;20697;-71
2022/02/09 06:46:25;;;;;;;1.67;1.02;;;-1.30;99.90;;;;;;2097469;28;20531;-71
2022/02/09 06:47:28;;;;;;;1.00;0.82;;;-1.20;99.90;;;;;;2097347;28;20651;-71
2022/02/09 06:48:30;;;;;;;1.45;1.05;;;-1.20;99.90;;;;;;2088929;28;20180;-71
2022/02/09 06:49:33;;;;;;;0.80;0.80;;;-1.20;99.90;;;;;;2088975;28;20275;-71
2022/02/09 06:50:38;;;;;;;2.50;0.80;;;-1.30;99.90;;;;;;2088235;28;20226;-71
2022/02/09 06:51:40;;;;;;;1.30;0.88;;;-1.40;99.90;;;;;;2097241;28;20187;-70
2022/02/09 06:52:45;;;;;;;1.38;1.08;;;-1.40;99.90;;;;;;2093034;28;20290;-71
2022/02/09 06:54:01;;;;;;;1.30;0.95;;;-1.40;99.90;;;;;;2088969;28;20175;-71
2022/02/09 06:55:21;;;;;;;0.70;0.70;;;-1.40;99.90;;;;;;2089810;28;20799;-71
2022/02/09 06:56:41;;;;;;;1.30;0.85;;;-1.40;99.90;;;;;;2085222;28;20686;-71
2022/02/09 06:59:08;;;;;;;2.15;1.10;;;-1.30;99.90;;;;;;2099921;28;20213;-71
2022/02/09 07:00:10;;;;;;;1.17;0.80;;;-1.20;99.90;;;;;;2097199;28;20698;-71
2022/02/09 07:01:11;;;;;;;1.10;1.00;;;-1.20;99.90;;;;;;2091472;28;20187;-71
2022/02/09 07:02:12;;;;;;;1.95;1.20;;;-1.20;99.90;;;;;;2088869;28;20297;-71
2022/02/09 07:03:13;;;;;;;2.43;1.33;;;-1.20;99.90;;;;;;2097020;28;20215;-71
2022/02/09 07:04:14;;;;;;;1.55;1.20;;;-1.20;99.90;;;;;;2097068;28;20217;-71
2022/02/09 07:05:15;;;;;;;2.20;1.27;;;-1.30;99.90;;;;;;2096653;28;20184;-71
2022/02/09 07:06:16;;;;;;;1.92;1.35;;;-1.30;99.90;;;;;;2097131;28;20191;-70
2022/02/09 07:07:17;;;;;;;1.80;1.10;;;-1.30;99.90;;;;;;2097082;28;20197;-70
2022/02/09 07:08:18;;;;;;;1.80;1.35;;;-1.30;99.90;;;;;;2096933;28;20564;-70
2022/02/09 07:09:19;;;;;;;3.77;1.60;;;-1.30;99.90;;;;;;2088410;28;20198;-70
2022/02/09 07:10:19;;;;;;;4.73;2.00;;;-1.30;99.90;;;;;;2097042;28;20215;-70
2022/02/09 07:11:20;;;;;;;5.50;3.00;;;-1.30;99.90;;;;;;2088745;28;20863;-71
2022/02/09 07:12:21;;;;;;;4.53;3.00;;;-1.30;99.90;;;;;;2097542;28;20191;-71
2022/02/09 07:13:21;;;;;;;3.93;2.73;;;-1.20;99.90;;;;;;2097905;28;20681;-71
2022/02/09 07:14:26;;;;;;;3.53;2.97;;;-1.20;99.90;;;;;;2096456;28;20232;-71
2022/02/09 07:15:32;;;;;;;5.55;3.25;;;-1.10;99.90;;;;;;2090086;28;20266;-71
2022/02/09 07:16:33;;;;;;;8.07;4.30;;;-1.10;99.90;;;;;;2095921;28;20255;-71
2022/02/09 07:17:33;;;;;;;9.03;5.47;;;-1.10;99.90;;;;;;2094812;28;20180;-71
2022/02/09 07:18:36;;;;;;;10.07;6.20;;;-1.10;99.90;;;;;;2083208;28;20434;-71
2022/02/09 07:19:38;;;;;;;10.35;6.72;;;-1.10;99.90;;;;;;2090142;28;20977;-71
2022/02/09 07:20:54;;;;;;;14.48;9.32;;;-1.10;99.90;;;;;;2082463;28;20184;-71
2022/02/09 07:21:55;;;;;;;12.23;7.55;;;-1.00;99.90;;;;;;2093070;28;20667;-71
2022/02/09 07:22:59;;;;;;;11.07;7.37;;;-0.90;99.90;;;;;;2099517;28;20282;-71
2022/02/09 07:24:01;;;;;;;13.00;6.57;;;-1.00;99.90;;;;;;2091068;28;20191;-71
2022/02/09 07:25:09;;;;;;;16.88;8.32;;;-1.00;99.90;;;;;;2098576;28;20252;-71
2022/02/09 07:26:13;;;;;;;11.68;7.22;;;-0.90;99.90;;;;;;2098822;28;20163;-71
2022/02/09 07:28:23;;;;;;;20.55;10.40;;;-0.80;99.90;;;;;;2099261;28;20175;-71
2022/02/09 07:29:24;;;;;;;20.47;10.77;;;-0.80;99.90;;;;;;2098690;28;20628;-71
2022/02/09 07:30:27;;;;;;;23.70;11.93;;;-0.80;99.90;;;;;;2099060;28;20647;-71
2022/02/09 07:31:27;;;;;;;26.80;13.07;;;-0.80;99.90;;;;;;2098531;28;20253;-71
2022/02/09 07:32:28;;;;;;;29.87;14.40;;;-0.80;99.90;;;;;;2098587;28;20622;-71
2022/02/09 07:33:29;;;;;;;33.50;14.83;;;-0.90;99.90;;;;;;2100132;28;20184;-71
2022/02/09 07:34:29;;;;;;;22.20;12.90;;;-0.90;99.90;;;;;;2099612;28;20198;-71
2022/02/09 07:35:31;;;;;;;24.50;11.90;;;-0.90;99.90;;;;;;2100108;28;20179;-71
2022/02/09 07:36:35;;;;;;;26.55;12.40;;;-0.90;99.90;;;;;;2099197;28;20209;-71
2022/02/09 07:37:37;;;;;;;23.10;12.00;;;-0.90;99.90;;;;;;2098854;28;20186;-71
2022/02/09 07:38:40;;;;;;;20.55;9.63;;;-0.90;99.90;;;;;;2098115;28;20274;-71
2022/02/09 07:39:40;;;;;;;14.88;8.60;;;-0.80;99.90;;;;;;2097005;28;20186;-71
2022/02/09 07:40:44;;;;;;;15.93;7.73;;;-0.80;99.90;;;;;;2096796;28;20225;-71
2022/02/09 07:41:47;;;;;;;16.88;9.30;;;-0.70;99.90;;;;;;2088818;28;20180;-71
2022/02/09 07:42:52;;;;;;;16.13;8.95;;;-0.70;99.90;;;;;;2097016;28;20234;-71
2022/02/09 07:45:26;;;;;;;14.73;8.35;;;-0.70;99.90;;;;;;2088986;28;20266;-71
2022/02/09 07:47:39;;;;;;;11.68;6.85;;;-0.60;99.90;;;;;;2091634;28;20584;-71
2022/02/09 07:50:04;;;;;;;9.63;5.53;;;-0.60;99.90;;;;;;2096462;28;20179;-71
2022/02/09 07:51:16;;;;;;;12.60;5.95;;;-0.50;99.90;;;;;;2096960;28;20551;-71
2022/02/09 07:52:25;;;;;;;9.10;5.65;;;-0.50;99.90;;;;;;2097297;28;20620;-71
2022/02/09 07:53:36;;;;;;;8.55;5.20;;;-0.40;99.90;;;;;;2088450;28;20660;-71
2022/02/09 07:54:37;;;;;;;11.55;4.72;;;-0.40;99.90;;;;;;2090689;28;20188;-71
2022/02/09 07:55:38;;;;;;;6.10;4.03;;;-0.50;99.90;;;;;;2096725;28;20283;-71
2022/02/09 07:56:42;;;;;;;8.20;4.88;;;-0.60;99.90;;;;;;2088419;28;20607;-71
2022/02/09 07:57:42;;;;;;;7.60;5.05;;;-0.50;99.90;;;;;;2080514;28;20189;-71
2022/02/09 07:58:44;;;;;;;7.23;4.83;;;-0.60;99.90;;;;;;2088342;28;20180;-71
2022/02/09 07:59:45;;;;;;;8.70;5.55;;;-0.50;99.90;;;;;;2096481;28;20183;-70
2022/02/09 08:00:45;;;;;;;25.90;15.30;;;-0.50;99.90;;;;;;2095963;28;20827;-71
2022/02/09 08:01:46;;;;;;;32.17;17.97;;;-0.50;99.90;;;;;;2095963;28;20190;-71
2022/02/09 08:02:49;;;;;;;26.35;14.88;;;-0.50;99.90;;;;;;2085355;28;20204;-71
2022/02/09 08:03:51;;;;;;;23.33;13.60;;;-0.40;99.90;;;;;;2094093;28;20566;-71
2022/02/09 08:04:51;;;;;;;20.85;12.93;;;-0.40;99.90;;;;;;2091146;28;20180;-70
2022/02/09 08:05:52;;;;;;;19.23;10.03;;;-0.40;99.90;;;;;;2096638;28;20733;-71
2022/02/09 08:06:54;;;;;;;18.83;10.47;;;-0.30;99.90;;;;;;2096425;28;20577;-71
2022/02/09 08:07:54;;;;;;;19.92;10.77;;;-0.30;99.90;;;;;;2096526;28;20203;-71
2022/02/09 08:09:01;;;;;;;16.53;9.80;;;-0.30;99.90;;;;;;2087872;28;20528;-71
2022/02/09 08:10:01;;;;;;;14.50;9.50;;;-0.30;99.90;;;;;;2080937;28;20276;-71
2022/02/09 08:26:08;;;;;;;19.20;12.10;;;0.00;99.90;;;;;;2095864;28;20176;-71
2022/02/09 08:27:45;;;;;;;9.57;7.30;;;0.10;99.90;;;;;;2093689;28;20270;-71
2022/02/09 08:28:50;;;;;;;10.95;6.97;;;0.20;99.90;;;;;;2093821;28;20167;-71
2022/02/09 08:33:06;;;;;;;12.77;6.60;;;0.30;99.90;;;;;;2096255;28;20341;-70
2022/02/09 08:34:07;;;;;;;12.57;6.65;;;0.30;99.90;;;;;;2078854;28;20199;-71
2022/02/09 08:35:09;;;;;;;10.57;6.23;;;0.30;99.90;;;;;;2087632;28;20194;-71
2022/02/09 08:36:09;;;;;;;9.02;6.20;;;0.40;99.90;;;;;;2087930;28;20177;-71
2022/02/09 08:37:10;;;;;;;10.83;7.43;;;0.50;99.90;;;;;;2096270;28;20203;-71
2022/02/09 08:38:11;;;;;;;10.77;6.37;;;0.50;99.90;;;;;;2087884;28;20172;-71
2022/02/09 08:39:12;;;;;;;9.27;6.50;;;0.50;99.90;;;;;;2079655;28;20274;-71
2022/02/09 08:40:17;;;;;;;9.40;6.70;;;0.60;99.90;;;;;;2096201;28;20415;-71
2022/02/09 08:41:17;;;;;;;9.25;6.13;;;0.60;99.90;;;;;;2096309;28;20168;-71
2022/02/09 08:42:18;;;;;;;11.13;6.80;;;0.60;99.90;;;;;;2084103;28;20678;-71
2022/02/09 08:43:19;;;;;;;12.87;7.13;;;0.60;99.90;;;;;;2083859;28;20565;-71
2022/02/09 08:44:20;;;;;;;11.80;6.97;;;0.70;99.90;;;;;;2084436;28;20516;-71
2022/02/09 08:45:21;;;;;;;10.67;7.33;;;0.80;99.90;;;;;;2086685;28;20685;-71
2022/02/09 08:46:22;;;;;;;9.50;6.30;;;0.80;99.90;;;;;;2078022;28;20185;-70
2022/02/09 08:47:23;;;;;;;9.27;6.22;;;0.90;99.90;;;;;;2087029;28;20181;-71
2022/02/09 08:48:24;;;;;;;13.70;7.63;;;0.90;99.90;;;;;;2096794;28;20187;-71
2022/02/09 08:49:26;;;;;;;9.63;6.50;;;1.00;99.90;;;;;;2096626;28;20188;-71
2022/02/09 08:50:27;;;;;;;14.30;7.07;;;1.00;99.90;;;;;;2096082;28;20216;-71
2022/02/09 08:51:28;;;;;;;8.32;6.32;;;1.10;99.90;;;;;;2079536;28;20193;-71
2022/02/09 08:52:29;;;;;;;8.00;5.87;;;1.10;99.90;;;;;;2079610;28;20189;-71
2022/02/09 08:53:30;;;;;;;8.23;5.13;;;1.20;99.90;;;;;;2096099;28;20183;-71
2022/02/09 08:54:31;;;;;;;9.10;5.70;;;1.20;99.90;;;;;;2093001;28;20240;-71
2022/02/09 08:55:34;;;;;;;8.13;5.43;;;1.30;99.90;;;;;;2087757;28;20176;-71
2022/02/09 08:56:38;;;;;;;7.60;5.53;;;1.30;99.90;;;;;;2088257;28;20233;-71
2022/02/09 08:57:38;;;;;;;7.80;5.60;;;1.50;99.90;;;;;;2096046;28;20214;-71
2022/02/09 08:58:40;;;;;;;7.80;5.27;;;1.50;99.90;;;;;;2096950;28;20333;-70
2022/02/09 08:59:41;;;;;;;13.30;6.10;;;1.50;99.90;;;;;;2096479;28;20640;-71
2022/02/09 09:00:43;;;;;;;7.33;4.80;;;1.60;99.90;;;;;;2093568;28;20191;-71
2022/02/09 09:01:48;;;;;;;8.60;5.10;;;1.60;99.90;;;;;;2082570;28;20178;-71
2022/02/09 09:03:14;;;;;;;5.13;3.97;;;1.80;99.90;;;;;;2082966;28;20204;-71
2022/02/09 09:04:29;;;;;;;5.50;3.75;;;1.90;99.90;;;;;;2090976;28;20184;-71
2022/02/09 09:05:41;;;;;;;5.18;3.60;;;2.00;99.90;;;;;;2093436;28;20241;-71
2022/02/09 09:06:45;;;;;;;4.78;3.70;;;2.10;99.90;;;;;;2091714;28;20173;-71
2022/02/09 09:07:51;;;;;;;4.75;3.30;;;2.20;99.90;;;;;;2089724;28;20185;-71
2022/02/09 09:10:14;;;;;;;5.67;4.40;;;2.30;99.90;;;;;;2088926;28;20187;-71
2022/02/09 09:15:15;;;;;;;12.23;5.20;;;2.70;99.90;;;;;;2096267;28;20192;-71
2022/02/09 09:18:55;;;;;;;6.13;4.82;;;3.10;99.90;;;;;;2096354;28;20194;-71
2022/02/09 09:57:59;;;;;;;2.53;1.95;;;5.00;99.90;;;;;;2089660;28;20168;-71
2022/02/09 09:59:11;;;;;;;7.88;5.18;;;7.30;99.90;;;;;;2098284;28;20188;-71
2022/02/09 10:01:01;;;;;;;10.40;5.70;;;7.40;99.90;;;;;;2097313;28;20547;-72
2022/02/09 10:04:01;;;;;;;9.48;5.78;;;8.50;99.60;;;;;;2097749;28;20176;-72
2022/02/09 10:05:22;;;;;;;9.13;5.63;;;8.80;99.90;;;;;;2097379;28;20246;-71
2022/02/09 10:32:50;;;;;;;6.07;2.13;;;10.90;83.40;;;;;;2097585;28;20696;-72
2022/02/09 10:34:07;;;;;;;2.17;1.80;;;10.90;85.70;;;;;;2097885;28;21137;-71
2022/02/09 10:35:39;;;;;;;4.10;2.30;;;11.20;91.00;;;;;;2096852;28;20808;-72
2022/02/09 10:36:50;;;;;;;5.70;2.80;;;11.90;83.90;;;;;;2093786;28;20415;-71
2022/02/09 10:37:51;;;;;;;2.93;2.63;;;12.00;77.10;;;;;;2093178;28;20475;-72
2022/02/09 10:39:09;;;;;;;2.67;2.13;;;12.10;81.50;;;;;;2088660;28;21076;-72
2022/02/09 10:40:27;;;;;;;4.23;2.87;;;12.50;85.10;;;;;;2097606;28;20201;-72
2022/02/09 10:41:33;;;;;;;2.67;1.70;;;12.60;76.80;;;;;;2097882;28;20786;-72
2022/02/09 10:42:46;;;;;;;1.67;1.47;;;12.70;79.50;;;;;;2098006;28;20413;-72
2022/02/09 10:43:47;;;;;;;1.37;1.20;;;12.80;79.80;;;;;;2097198;28;20426;-71
2022/02/09 10:45:02;;;;;;;1.70;1.17;;;13.00;77.40;;;;;;2096773;28;20555;-72
2022/02/09 10:46:17;;;;;;;1.13;1.03;;;13.10;74.00;;;;;;2097239;28;20421;-72
2022/02/09 10:47:34;;;;;;;1.20;1.00;;;13.20;76.50;;;;;;2097422;28;20421;-72
2022/02/09 10:48:45;;;;;;;1.43;1.20;;;13.30;75.00;;;;;;2096523;28;20479;-71
2022/02/09 10:50:15;;;;;;;1.40;1.20;;;13.60;75.50;;;;;;2090282;28;20454;-72
2022/02/09 10:51:28;;;;;;;1.77;1.27;;;13.80;71.80;;;;;;2094020;28;20500;-72
2022/02/09 10:52:39;;;;;;;2.00;1.50;;;14.00;69.50;;;;;;2090744;28;20418;-72
2022/02/09 10:54:03;;;;;;;1.23;1.13;;;13.90;67.80;;;;;;2091059;28;20890;-73
2022/02/09 10:55:04;;;;;;;1.47;1.30;;;14.00;66.60;;;;;;2092040;28;20463;-72
2022/02/09 10:56:04;;;;;;;4.40;1.13;;;14.00;69.30;;;;;;2097061;28;20464;-72
2022/02/09 10:57:08;;;;;;;1.63;1.40;;;14.00;69.20;;;;;;2097829;28;20191;-72
2022/02/09 10:58:24;;;;;;;1.73;1.30;;;14.10;67.50;;;;;;2097684;28;20609;-71
2022/02/09 10:59:31;;;;;;;1.37;1.10;;;14.30;67.50;;;;;;2096930;28;20788;-72
2022/02/09 11:00:32;;;;;;;1.70;1.50;;;14.40;64.80;;;;;;2097105;28;20830;-72
2022/02/09 11:01:35;;;;;;;1.27;1.17;;;14.40;59.40;;;;;;2097023;28;20941;-72
2022/02/09 11:02:36;;;;;;;3.67;1.10;;;14.40;61.80;;;;;;2089026;28;20763;-71
2022/02/09 11:03:37;;;;;;;1.03;0.93;;;14.90;63.30;;;;;;2080643;28;20428;-72
2022/02/09 11:04:41;;;;;;;1.40;1.30;;;15.10;62.50;;;;;;2088314;28;20415;-72
2022/02/09 11:05:46;;;;;;;1.43;1.20;;;15.10;60.60;;;;;;2089198;28;20180;-71
2022/02/09 11:06:49;;;;;;;1.60;1.10;;;15.60;60.10;;;;;;2096806;28;20406;-71
2022/02/09 11:07:54;;;;;;;1.30;0.87;;;16.00;56.60;;;;;;2096841;28;20524;-72
2022/02/09 11:08:55;;;;;;;1.50;1.00;;;16.20;56.80;;;;;;2089068;28;20415;-72
2022/02/09 11:09:56;;;;;;;1.00;0.90;;;16.10;55.10;;;;;;2097053;28;20506;-72
2022/02/09 11:10:56;;;;;;;1.10;0.90;;;16.20;56.30;;;;;;2097539;28;20198;-72
2022/02/09 11:11:57;;;;;;;1.10;1.00;;;16.10;54.90;;;;;;2097551;28;20183;-72
2022/02/09 11:12:58;;;;;;;0.87;0.80;;;16.60;55.40;;;;;;2096748;28;20253;-72
2022/02/09 11:13:59;;;;;;;0.80;0.70;;;16.70;52.70;;;;;;2088773;28;20177;-72
2022/02/09 11:15:00;;;;;;;1.30;0.97;;;16.90;52.50;;;;;;2096413;28;20237;-72